Time;durP1;ratioP1;P1;durP2;ratioP2;P2;SDS_P1;SDS_P2;PMS_P1;PMS_P2;Temp;Humidity;BMP_temperature;BMP_pressure;BME280_temperature;BME280_humidity;BME280_pressure;Samples;Min_cycle;Max_cycle;Signal;HPM_P1;HPM_P2
2021/09/14 00:00:52;;;;;;;;;;;;;;;;;;2075229;28;1543;-82
2021/09/14 00:01:53;;;;;;;;;;;;;;;;;;2068583;28;2081;-81
2021/09/14 00:02:55;;;;;;;;;;;;;;;;;;2074764;28;1699;-82
2021/09/14 00:03:55;;;;;;;;;;;;;;;;;;2083294;28;1216;-82
2021/09/14 00:04:57;;;;;;;;;;;;;;;;;;2083231;28;1327;-82
2021/09/14 00:05:58;;;;;;;;;;;;;;;;;;2082998;28;1417;-82
2021/09/14 00:07:03;;;;;;;;;;;;;;;;;;2091525;28;1254;-82
2021/09/14 00:08:04;;;;;;;;;;;;;;;;;;2082648;28;1707;-82
2021/09/14 00:09:06;;;;;;;;;;;;;;;;;;2083564;28;1298;-82
2021/09/14 00:10:08;;;;;;;;;;;;;;;;;;2104998;28;2100;-82
2021/09/14 00:11:09;;;;;;;;;;;;;;;;;;2089634;28;1458;-82
2021/09/14 00:12:10;;;;;;;;;;;;;;;;;;2089670;28;1490;-83
2021/09/14 00:13:13;;;;;;;;;;;;;;;;;;2099772;28;1579;-82
2021/09/14 00:14:13;;;;;;;;;;;;;;;;;;2091000;28;1255;-82
2021/09/14 00:15:15;;;;;;;;;;;;;;;;;;2080514;28;1280;-82
2021/09/14 00:16:16;;;;;;;;;;;;;;;;;;2074657;28;1263;-82
2021/09/14 00:17:18;;;;;;;;;;;;;;;;;;2074265;28;1667;-82
2021/09/14 00:18:19;;;;;;;;;;;;;;;;;;2082270;28;1181;-81
2021/09/14 00:19:20;;;;;;;;;;;;;;;;;;2091037;28;1629;-81
2021/09/14 00:20:22;;;;;;;;;;;;;;;;;;2074818;28;1734;-82
2021/09/14 00:21:23;;;;;;;;;;;;;;;;;;2083467;28;1382;-84
2021/09/14 00:22:26;;;;;;;;;;;;;;;;;;2083122;28;1910;-82
2021/09/14 00:23:27;;;;;;;;;;;;;;;;;;2087186;28;1604;-82
2021/09/14 00:24:28;;;;;;;;;;;;;;;;;;2090918;28;1370;-80
2021/09/14 00:25:29;;;;;;;;;;;;;;;;;;2086130;28;2186;-82
2021/09/14 00:26:31;;;;;;;;;;;;;;;;;;2090832;28;1729;-81
2021/09/14 00:27:32;;;;;;;;;;;;;;;;;;2086813;28;1711;-81
2021/09/14 00:28:33;;;;;;;;;;;;;;;;;;2087570;28;1406;-81
2021/09/14 00:29:34;;;;;;;;;;;;;;;;;;2090893;28;1426;-81
2021/09/14 00:30:36;;;;;;;;;;;;;;;;;;2090833;28;1690;-80
2021/09/14 00:31:37;;;;;;;;;;;;;;;;;;2074572;28;1721;-81
2021/09/14 00:32:38;;;;;;;;;;;;;;;;;;2082622;28;1371;-81
2021/09/14 00:33:40;;;;;;;;;;;;;;;;;;2099722;28;1583;-80
2021/09/14 00:34:42;;;;;;;;;;;;;;;;;;2093508;28;1430;-81
2021/09/14 00:35:42;;;;;;;;;;;;;;;;;;2088078;28;1879;-81
2021/09/14 00:36:44;;;;;;;;;;;;;;;;;;2093406;28;1457;-81
2021/09/14 00:37:47;;;;;;;;;;;;;;;;;;2090280;28;1688;-80
2021/09/14 00:38:49;;;;;;;;;;;;;;;;;;2090450;28;1649;-80
2021/09/14 00:39:49;;;;;;;;;;;;;;;;;;2082483;28;1872;-81
2021/09/14 00:40:52;;;;;;;;;;;;;;;;;;2074833;28;1434;-80
2021/09/14 00:41:54;;;;;;;;;;;;;;;;;;2089652;28;1914;-80
2021/09/14 00:42:55;;;;;;;;;;;;;;;;;;2106434;28;1871;-80
2021/09/14 00:43:58;;;;;;;;;;;;;;;;;;2099552;28;1583;-81
2021/09/14 00:44:59;;;;;;;;;;;;;;;;;;2089492;28;1875;-81
2021/09/14 00:46:00;;;;;;;;;;;;;;;;;;2079222;28;1382;-81
2021/09/14 00:47:02;;;;;;;;;;;;;;;;;;2098205;28;2005;-83
2021/09/14 00:48:03;;;;;;;;;;;;;;;;;;2106869;28;1681;-82
2021/09/14 00:49:05;;;;;;;;;;;;;;;;;;2107646;28;1376;-81
2021/09/14 00:50:06;;;;;;;;;;;;;;;;;;2107486;28;2083;-81
2021/09/14 00:51:08;;;;;;;;;;;;;;;;;;2107789;28;1347;-82
2021/09/14 00:52:09;;;;;;;;;;;;;;;;;;2099741;28;1389;-82
2021/09/14 00:53:12;;;;;;;;;;;;;;;;;;2107461;28;1371;-81
2021/09/14 00:54:13;;;;;;;;;;;;;;;;;;2099542;28;897;-81
2021/09/14 00:55:15;;;;;;;;;;;;;;;;;;2098578;28;1727;-81
2021/09/14 00:56:16;;;;;;;;;;;;;;;;;;2090802;28;1544;-81
2021/09/14 00:57:18;;;;;;;;;;;;;;;;;;2091258;28;1627;-81
2021/09/14 00:58:20;;;;;;;;;;;;;;;;;;2082659;28;1480;-81
2021/09/14 00:59:22;;;;;;;;;;;;;;;;;;2094270;28;1453;-81
2021/09/14 01:00:22;;;;;;;;;;;;;;;;;;2098902;28;1267;-81
2021/09/14 01:01:24;;;;;;;;;;;;;;;;;;2098847;28;1353;-82
2021/09/14 01:02:25;;;;;;;;;;;;;;;;;;2098724;28;1977;-81
2021/09/14 01:03:27;;;;;;;;;;;;;;;;;;2098740;28;1408;-81
2021/09/14 01:04:28;;;;;;;;;;;;;;;;;;2107622;28;1402;-81
2021/09/14 01:05:30;;;;;;;;;;;;;;;;;;2100145;28;1505;-81
2021/09/14 01:06:31;;;;;;;;;;;;;;;;;;2109656;28;1380;-80
2021/09/14 01:07:33;;;;;;;;;;;;;;;;;;2106165;28;1769;-81
2021/09/14 01:08:36;;;;;;;;;;;;;;;;;;2107763;28;1199;-81
2021/09/14 01:09:38;;;;;;;;;;;;;;;;;;2107373;28;1655;-81
2021/09/14 01:10:39;;;;;;;;;;;;;;;;;;2105795;28;1992;-81
2021/09/14 01:11:41;;;;;;;;;;;;;;;;;;2099024;28;1644;-80
2021/09/14 01:12:42;;;;;;;;;;;;;;;;;;2091157;28;1822;-80
2021/09/14 01:13:44;;;;;;;;;;;;;;;;;;2099109;28;1809;-81
2021/09/14 01:14:51;;;;;;;;;;;;;;;;;;2115996;28;1423;-81
2021/09/14 01:15:53;;;;;;;;;;;;;;;;;;2105902;28;1389;-81
2021/09/14 01:16:54;;;;;;;;;;;;;;;;;;2098630;28;1638;-81
2021/09/14 01:17:56;;;;;;;;;;;;;;;;;;2088466;28;1833;-81
2021/09/14 01:18:57;;;;;;;;;;;;;;;;;;2091242;28;1299;-81
2021/09/14 01:19:59;;;;;;;;;;;;;;;;;;2099009;28;1551;-81
2021/09/14 01:21:00;;;;;;;;;;;;;;;;;;2099385;28;1742;-81
2021/09/14 01:22:03;;;;;;;;;;;;;;;;;;2098428;28;1981;-82
2021/09/14 01:23:05;;;;;;;;;;;;;;;;;;2090456;28;1316;-80
2021/09/14 01:24:08;;;;;;;;;;;;;;;;;;2090296;28;1410;-81
2021/09/14 01:25:16;;;;;;;;;;;;;;;;;;2088578;28;1257;-81
2021/09/14 01:26:19;;;;;;;;;;;;;;;;;;2082457;28;1152;-81
2021/09/14 01:27:20;;;;;;;;;;;;;;;;;;2093861;28;1705;-81
2021/09/14 01:28:24;;;;;;;;;;;;;;;;;;2102568;28;2089;-81
2021/09/14 01:30:54;;;;;;;;;;;;;;;;;;2090917;28;988;-81
2021/09/14 01:31:55;;;;;;;;;;;;;;;;;;2082730;28;1622;-81
2021/09/14 01:32:57;;;;;;;;;;;;;;;;;;2096551;28;1931;-82
2021/09/14 01:34:01;;;;;;;;;;;;;;;;;;2098576;28;1478;-81
2021/09/14 01:35:06;;;;;;;;;;;;;;;;;;2100274;28;1821;-81
2021/09/14 01:36:09;;;;;;;;;;;;;;;;;;2115076;28;1302;-81
2021/09/14 01:37:10;;;;;;;;;;;;;;;;;;2106035;28;1710;-81
2021/09/14 01:38:13;;;;;;;;;;;;;;;;;;2096856;28;1449;-82
2021/09/14 01:39:16;;;;;;;;;;;;;;;;;;2091073;28;1431;-82
2021/09/14 01:40:18;;;;;;;;;;;;;;;;;;2090191;28;1485;-82
2021/09/14 01:41:24;;;;;;;;;;;;;;;;;;2091632;28;1325;-82
2021/09/14 01:42:25;;;;;;;;;;;;;;;;;;2090512;28;1914;-82
2021/09/14 01:43:27;;;;;;;;;;;;;;;;;;2099122;28;1440;-82
2021/09/14 01:44:28;;;;;;;;;;;;;;;;;;2090794;28;1631;-81
2021/09/14 01:45:30;;;;;;;;;;;;;;;;;;2096177;28;2033;-82
2021/09/14 01:46:33;;;;;;;;;;;;;;;;;;2099172;28;1397;-82
2021/09/14 01:47:35;;;;;;;;;;;;;;;;;;2105511;28;1345;-81
2021/09/14 01:48:36;;;;;;;;;;;;;;;;;;2104024;28;1326;-82
2021/09/14 01:49:38;;;;;;;;;;;;;;;;;;2093498;28;1674;-82
2021/09/14 01:50:39;;;;;;;;;;;;;;;;;;2090829;28;1570;-82
2021/09/14 01:51:41;;;;;;;;;;;;;;;;;;2098588;28;1465;-82
2021/09/14 01:52:43;;;;;;;;;;;;;;;;;;2106445;28;1912;-81
2021/09/14 01:53:52;;;;;;;;;;;;;;;;;;2107292;28;1647;-80
2021/09/14 01:54:53;;;;;;;;;;;;;;;;;;2104934;28;1614;-81
2021/09/14 01:55:58;;;;;;;;;;;;;;;;;;2105097;28;1683;-80
2021/09/14 01:56:59;;;;;;;;;;;;;;;;;;2104578;28;1418;-80
2021/09/14 01:58:01;;;;;;;;;;;;;;;;;;2103857;28;1952;-80
2021/09/14 01:59:03;;;;;;;;;;;;;;;;;;2090578;28;1172;-80
2021/09/14 02:00:08;;;;;;;;;;;;;;;;;;2092399;28;1736;-81
2021/09/14 02:01:21;;;;;;;;;;;;;;;;;;2104648;28;1398;-79
2021/09/14 02:02:31;;;;;;;;;;;;;;;;;;2102142;28;1910;-80
2021/09/14 02:03:37;;;;;;;;;;;;;;;;;;2097493;28;1449;-80
2021/09/14 02:04:46;;;;;;;;;;;;;;;;;;2105069;28;1517;-81
2021/09/14 02:38:28;;;;;;;;;;;;;;;;;;2094916;28;1036;-81
2021/09/14 02:39:55;;;;;;;;;;;;;;;;;;2093661;28;1421;-81
2021/09/14 02:43:51;;;;;;;;;;;;;;;;;;2085830;28;1316;-81
2021/09/14 02:58:37;;;;;;;;;;;;;;;;;;2098731;28;1414;-82
2021/09/14 02:58:38;;;;;;;;;;;;;;;;;;2102507;28;1347;-81
2021/09/14 02:59:39;;;;;;;;;;;;;;;;;;2097505;28;1379;-82
2021/09/14 03:00:42;;;;;;;;;;;;;;;;;;2085071;28;1277;-81
2021/09/14 03:01:43;;;;;;;;;;;;;;;;;;2100152;28;1191;-81
2021/09/14 03:02:45;;;;;;;;;;;;;;;;;;2100216;28;1910;-81
2021/09/14 03:03:47;;;;;;;;;;;;;;;;;;2091707;28;1329;-81
2021/09/14 03:04:51;;;;;;;;;;;;;;;;;;2091966;28;1997;-82
2021/09/14 03:05:53;;;;;;;;;;;;;;;;;;2091395;28;1423;-81
2021/09/14 03:06:57;;;;;;;;;;;;;;;;;;2092359;28;1513;-81
2021/09/14 03:08:06;;;;;;;;;;;;;;;;;;2109650;28;1203;-81
2021/09/14 03:09:08;;;;;;;;;;;;;;;;;;2108549;28;1329;-82
2021/09/14 03:10:09;;;;;;;;;;;;;;;;;;2108555;28;1180;-82
2021/09/14 03:11:13;;;;;;;;;;;;;;;;;;2100328;28;1673;-81
2021/09/14 03:12:21;;;;;;;;;;;;;;;;;;2092884;28;1932;-81
2021/09/14 03:13:27;;;;;;;;;;;;;;;;;;2091849;28;1579;-82
2021/09/14 03:14:28;;;;;;;;;;;;;;;;;;2087970;28;1443;-81
2021/09/14 03:15:31;;;;;;;;;;;;;;;;;;2090183;28;1733;-81
2021/09/14 03:16:34;;;;;;;;;;;;;;;;;;2092205;28;1156;-81
2021/09/14 03:17:35;;;;;;;;;;;;;;;;;;2091570;28;1429;-81
2021/09/14 03:18:38;;;;;;;;;;;;;;;;;;2099755;28;1468;-81
2021/09/14 03:19:39;;;;;;;;;;;;;;;;;;2099427;28;1351;-81
2021/09/14 03:20:41;;;;;;;;;;;;;;;;;;2098584;28;2005;-81
2021/09/14 03:21:42;;;;;;;;;;;;;;;;;;2099521;28;1291;-82
2021/09/14 03:22:46;;;;;;;;;;;;;;;;;;2097689;28;1913;-82
2021/09/14 03:23:46;;;;;;;;;;;;;;;;;;2091824;28;1282;-81
2021/09/14 03:24:49;;;;;;;;;;;;;;;;;;2092044;28;1250;-83
2021/09/14 03:25:51;;;;;;;;;;;;;;;;;;2101993;28;1382;-83
2021/09/14 03:26:57;;;;;;;;;;;;;;;;;;2117299;28;1872;-82
2021/09/14 03:27:58;;;;;;;;;;;;;;;;;;2108202;28;1195;-82
2021/09/14 03:29:03;;;;;;;;;;;;;;;;;;2108838;28;1414;-82
2021/09/14 03:30:11;;;;;;;;;;;;;;;;;;2097617;28;1886;-83
2021/09/14 03:31:16;;;;;;;;;;;;;;;;;;2100333;28;1349;-82
2021/09/14 03:32:17;;;;;;;;;;;;;;;;;;2107962;28;1374;-83
2021/09/14 03:33:19;;;;;;;;;;;;;;;;;;2091194;28;1745;-82
2021/09/14 03:34:21;;;;;;;;;;;;;;;;;;2083331;28;1278;-82
2021/09/14 03:35:25;;;;;;;;;;;;;;;;;;2096516;28;1350;-83
2021/09/14 03:36:28;;;;;;;;;;;;;;;;;;2100049;28;1413;-83
2021/09/14 03:37:29;;;;;;;;;;;;;;;;;;2082967;28;2005;-83
2021/09/14 03:38:31;;;;;;;;;;;;;;;;;;2091397;28;1021;-82
2021/09/14 03:39:32;;;;;;;;;;;;;;;;;;2091765;28;1215;-83
2021/09/14 03:40:36;;;;;;;;;;;;;;;;;;2092294;28;1073;-91
2021/09/14 03:41:39;;;;;;;;;;;;;;;;;;2100625;28;1370;-91
2021/09/14 03:42:42;;;;;;;;;;;;;;;;;;2100043;28;1910;-91
2021/09/14 03:43:47;;;;;;;;;;;;;;;;;;2083759;28;1282;-89
2021/09/14 03:44:51;;;;;;;;;;;;;;;;;;2085172;28;1247;-91
2021/09/14 03:45:53;;;;;;;;;;;;;;;;;;2091917;28;1125;-92
2021/09/14 03:47:01;;;;;;;;;;;;;;;;;;2100722;28;1760;-91
2021/09/14 03:48:04;;;;;;;;;;;;;;;;;;2099375;28;1279;-91
2021/09/14 03:49:09;;;;;;;;;;;;;;;;;;2091694;28;1311;-92
2021/09/14 03:50:17;;;;;;;;;;;;;;;;;;2092565;28;1268;-91
2021/09/14 03:51:21;;;;;;;;;;;;;;;;;;2092169;28;1043;-91
2021/09/14 03:52:21;;;;;;;;;;;;;;;;;;2083152;28;1279;-91
2021/09/14 03:53:25;;;;;;;;;;;;;;;;;;2091891;28;970;-91
2021/09/14 03:54:27;;;;;;;;;;;;;;;;;;2092120;28;1092;-90
2021/09/14 03:55:32;;;;;;;;;;;;;;;;;;2083253;28;1565;-90
2021/09/14 03:56:33;;;;;;;;;;;;;;;;;;2084432;28;1292;-90
2021/09/14 03:57:39;;;;;;;;;;;;;;;;;;2099997;28;1180;-90
2021/09/14 03:58:49;;;;;;;;;;;;;;;;;;2092410;28;1224;-91
2021/09/14 03:59:59;;;;;;;;;;;;;;;;;;2093447;28;1459;-90
2021/09/14 04:01:01;;;;;;;;;;;;;;;;;;2091702;28;1369;-91
2021/09/14 04:02:10;;;;;;;;;;;;;;;;;;2091547;28;1895;-91
2021/09/14 04:03:15;;;;;;;;;;;;;;;;;;2101021;28;1906;-90
2021/09/14 04:04:18;;;;;;;;;;;;;;;;;;2099723;28;1286;-90
2021/09/14 04:09:38;;;;;;;;;;;;;;;;;;2110059;28;1414;-90
2021/09/14 04:10:46;;;;;;;;;;;;;;;;;;2106884;28;1353;-90
2021/09/14 04:11:52;;;;;;;;;;;;;;;;;;2092188;28;1540;-90
2021/09/14 04:12:54;;;;;;;;;;;;;;;;;;2100170;28;1027;-90
2021/09/14 04:14:06;;;;;;;;;;;;;;;;;;2099750;28;1397;-90
2021/09/14 04:15:10;;;;;;;;;;;;;;;;;;2098166;28;1187;-90
2021/09/14 04:16:12;;;;;;;;;;;;;;;;;;2091244;28;1197;-90
2021/09/14 04:17:13;;;;;;;;;;;;;;;;;;2092959;28;1226;-90
2021/09/14 04:18:15;;;;;;;;;;;;;;;;;;2100010;28;1216;-90
2021/09/14 04:19:20;;;;;;;;;;;;;;;;;;2116647;28;1330;-89
2021/09/14 04:20:21;;;;;;;;;;;;;;;;;;2103666;28;1861;-90
2021/09/14 04:21:23;;;;;;;;;;;;;;;;;;2099562;28;1504;-90
2021/09/14 04:22:24;;;;;;;;;;;;;;;;;;2096664;28;2061;-89
2021/09/14 04:23:26;;;;;;;;;;;;;;;;;;2091145;28;1965;-90
2021/09/14 04:24:27;;;;;;;;;;;;;;;;;;2098044;28;1516;-90
2021/09/14 04:25:29;;;;;;;;;;;;;;;;;;2099325;28;2083;-90
2021/09/14 04:26:30;;;;;;;;;;;;;;;;;;2099901;28;1323;-90
2021/09/14 04:27:32;;;;;;;;;;;;;;;;;;2099725;28;1433;-90
2021/09/14 04:28:33;;;;;;;;;;;;;;;;;;2091885;28;1361;-89
2021/09/14 04:29:39;;;;;;;;;;;;;;;;;;2090930;28;1445;-89
2021/09/14 04:30:44;;;;;;;;;;;;;;;;;;2098881;28;1438;-90
2021/09/14 04:31:49;;;;;;;;;;;;;;;;;;2083897;28;1263;-89
2021/09/14 04:33:19;;;;;;;;;;;;;;;;;;2101180;28;1378;-92
2021/09/14 04:34:23;;;;;;;;;;;;;;;;;;2086880;28;1380;-89
2021/09/14 04:35:26;;;;;;;;;;;;;;;;;;2087785;28;1895;-90
2021/09/14 04:36:32;;;;;;;;;;;;;;;;;;2099289;28;1351;-88
2021/09/14 04:37:36;;;;;;;;;;;;;;;;;;2091373;28;1572;-89
2021/09/14 04:38:42;;;;;;;;;;;;;;;;;;2083706;28;1620;-88
2021/09/14 04:39:49;;;;;;;;;;;;;;;;;;2083836;28;1335;-89
2021/09/14 04:40:58;;;;;;;;;;;;;;;;;;2083341;28;1206;-88
2021/09/14 04:41:59;;;;;;;;;;;;;;;;;;2081190;28;1333;-88
2021/09/14 04:43:02;;;;;;;;;;;;;;;;;;2083016;28;2041;-88
2021/09/14 04:44:03;;;;;;;;;;;;;;;;;;2074857;28;1240;-88
2021/09/14 04:46:33;;;;;;;;;;;;;;;;;;2089172;28;1512;-89
2021/09/14 04:47:34;;;;;;;;;;;;;;;;;;2091508;28;1175;-88
2021/09/14 04:48:37;;;;;;;;;;;;;;;;;;2091404;28;1275;-88
2021/09/14 04:49:38;;;;;;;;;;;;;;;;;;2082578;28;1192;-89
2021/09/14 04:50:40;;;;;;;;;;;;;;;;;;2074547;28;1939;-88
2021/09/14 04:51:43;;;;;;;;;;;;;;;;;;2078378;28;1415;-89
2021/09/14 04:52:48;;;;;;;;;;;;;;;;;;2082562;28;1623;-90
2021/09/14 04:53:49;;;;;;;;;;;;;;;;;;2075405;28;1454;-89
2021/09/14 04:54:51;;;;;;;;;;;;;;;;;;2090894;28;1626;-89
2021/09/14 04:55:55;;;;;;;;;;;;;;;;;;2106738;28;1308;-90
2021/09/14 04:56:57;;;;;;;;;;;;;;;;;;2090931;28;1323;-88
2021/09/14 04:58:00;;;;;;;;;;;;;;;;;;2075843;28;1903;-88
2021/09/14 04:59:01;;;;;;;;;;;;;;;;;;2083031;28;1367;-89
2021/09/14 05:00:04;;;;;;;;;;;;;;;;;;2087056;28;1707;-88
2021/09/14 05:01:07;;;;;;;;;;;;;;;;;;2087841;28;1354;-88
2021/09/14 05:02:10;;;;;;;;;;;;;;;;;;2091017;28;1547;-89
2021/09/14 05:03:12;;;;;;;;;;;;;;;;;;2099671;28;1975;-88
2021/09/14 05:04:14;;;;;;;;;;;;;;;;;;2098986;28;1331;-88
2021/09/14 05:05:17;;;;;;;;;;;;;;;;;;2090492;28;1922;-88
2021/09/14 05:06:19;;;;;;;;;;;;;;;;;;2083150;28;1358;-88
2021/09/14 05:07:23;;;;;;;;;;;;;;;;;;2085499;28;2098;-89
2021/09/14 05:08:26;;;;;;;;;;;;;;;;;;2082903;28;1464;-88
2021/09/14 05:09:28;;;;;;;;;;;;;;;;;;2082914;28;1322;-88
2021/09/14 05:10:35;;;;;;;;;;;;;;;;;;2074774;28;1224;-90
2021/09/14 05:11:44;;;;;;;;;;;;;;;;;;2092244;28;1461;-90
2021/09/14 05:12:46;;;;;;;;;;;;;;;;;;2090172;28;1268;-89
2021/09/14 05:13:54;;;;;;;;;;;;;;;;;;2075360;28;1300;-89
2021/09/14 05:14:59;;;;;;;;;;;;;;;;;;2074365;28;1354;-89
2021/09/14 05:16:19;;;;;;;;;;;;;;;;;;2082831;28;1350;-90
2021/09/14 05:19:30;;;;;;;;;;;;;;;;;;2095947;28;1381;-89
2021/09/14 05:20:40;;;;;;;;;;;;;;;;;;2097873;28;1206;-89
2021/09/14 05:22:03;;;;;;;;;;;;;;;;;;2099183;28;1195;-89
2021/09/14 05:24:40;;;;;;;;;;;;;;;;;;2078891;28;1263;-90
2021/09/14 05:25:45;;;;;;;;;;;;;;;;;;2091406;28;1907;-90
2021/09/14 05:26:49;;;;;;;;;;;;;;;;;;2101867;28;1293;-91
2021/09/14 05:27:54;;;;;;;;;;;;;;;;;;2095646;28;1920;-90
2021/09/14 05:29:00;;;;;;;;;;;;;;;;;;2095798;28;1285;-89
2021/09/14 05:30:16;;;;;;;;;;;;;;;;;;2084997;28;2073;-91
2021/09/14 05:32:33;;;;;;;;;;;;;;;;;;2068517;28;1208;-90
2021/09/14 05:37:45;;;;;;;;;;;;;;;;;;2050042;28;1755;-88
2021/09/14 05:38:49;;;;;;;;;;;;;;;;;;2074303;28;1306;-88
2021/09/14 05:39:51;;;;;;;;;;;;;;;;;;2096051;28;1890;-88
2021/09/14 05:40:59;;;;;;;;;;;;;;;;;;2104350;28;1314;-87
2021/09/14 05:42:06;;;;;;;;;;;;;;;;;;2097726;28;1895;-88
2021/09/14 05:43:07;;;;;;;;;;;;;;;;;;2097045;28;1355;-89
2021/09/14 05:44:09;;;;;;;;;;;;;;;;;;2092946;28;1991;-89
2021/09/14 05:45:12;;;;;;;;;;;;;;;;;;2093444;28;1220;-90
2021/09/14 05:46:13;;;;;;;;;;;;;;;;;;2093373;28;1119;-89
2021/09/14 05:47:19;;;;;;;;;;;;;;;;;;2093587;28;1367;-89
2021/09/14 05:48:31;;;;;;;;;;;;;;;;;;2101819;28;1106;-89
2021/09/14 05:49:58;;;;;;;;;;;;;;;;;;2107651;28;1188;-90
2021/09/14 05:51:19;;;;;;;;;;;;;;;;;;2092997;28;1290;-90
2021/09/14 05:52:44;;;;;;;;;;;;;;;;;;2090935;28;1956;-90
2021/09/14 05:53:53;;;;;;;;;;;;;;;;;;2092812;28;1243;-90
2021/09/14 05:54:54;;;;;;;;;;;;;;;;;;2084675;28;1860;-90
2021/09/14 05:55:56;;;;;;;;;;;;;;;;;;2084476;28;1400;-90
2021/09/14 05:56:57;;;;;;;;;;;;;;;;;;2100902;28;1410;-90
2021/09/14 05:57:59;;;;;;;;;;;;;;;;;;2100548;28;1280;-90
2021/09/14 05:59:01;;;;;;;;;;;;;;;;;;2084946;28;1288;-90
2021/09/14 06:00:04;;;;;;;;;;;;;;;;;;2101325;28;1310;-90
2021/09/14 06:01:15;;;;;;;;;;;;;;;;;;2106792;28;668;-89
2021/09/14 06:02:16;;;;;;;;;;;;;;;;;;2092870;28;1857;-90
2021/09/14 06:03:18;;;;;;;;;;;;;;;;;;2100958;28;1918;-90
2021/09/14 06:04:19;;;;;;;;;;;;;;;;;;2099993;28;1310;-90
2021/09/14 06:05:23;;;;;;;;;;;;;;;;;;2092865;28;2025;-90
2021/09/14 06:06:25;;;;;;;;;;;;;;;;;;2109395;28;1046;-91
2021/09/14 06:07:26;;;;;;;;;;;;;;;;;;2103851;28;1926;-89
2021/09/14 06:08:28;;;;;;;;;;;;;;;;;;2100974;28;1327;-90
2021/09/14 06:09:29;;;;;;;;;;;;;;;;;;2109089;28;1270;-90
2021/09/14 06:10:31;;;;;;;;;;;;;;;;;;2104009;28;2059;-91
2021/09/14 06:11:47;;;;;;;;;;;;;;;;;;2098409;28;1540;-90
2021/09/14 06:12:48;;;;;;;;;;;;;;;;;;2084613;28;1309;-91
2021/09/14 06:13:50;;;;;;;;;;;;;;;;;;2084336;28;1417;-90
2021/09/14 06:14:53;;;;;;;;;;;;;;;;;;2101326;28;1222;-91
2021/09/14 06:15:57;;;;;;;;;;;;;;;;;;2108901;28;1289;-89
2021/09/14 06:16:59;;;;;;;;;;;;;;;;;;2109308;28;1326;-90
2021/09/14 06:18:04;;;;;;;;;;;;;;;;;;2107858;28;1194;-90
2021/09/14 06:19:08;;;;;;;;;;;;;;;;;;2092755;28;1477;-90
2021/09/14 06:20:11;;;;;;;;;;;;;;;;;;2092296;28;1918;-90
2021/09/14 06:21:16;;;;;;;;;;;;;;;;;;2100682;28;1274;-90
2021/09/14 06:22:20;;;;;;;;;;;;;;;;;;2100623;28;1176;-90
2021/09/14 06:23:22;;;;;;;;;;;;;;;;;;2100422;28;1372;-91
2021/09/14 06:24:25;;;;;;;;;;;;;;;;;;2101106;28;1890;-91
2021/09/14 06:25:26;;;;;;;;;;;;;;;;;;2114017;28;1820;-90
2021/09/14 06:26:30;;;;;;;;;;;;;;;;;;2117991;28;1496;-90
2021/09/14 06:27:31;;;;;;;;;;;;;;;;;;2116885;28;1998;-90
2021/09/14 06:28:35;;;;;;;;;;;;;;;;;;2109248;28;1211;-90
2021/09/14 06:29:38;;;;;;;;;;;;;;;;;;2109098;28;1301;-90
2021/09/14 06:30:45;;;;;;;;;;;;;;;;;;2108033;28;1921;-90
2021/09/14 06:31:49;;;;;;;;;;;;;;;;;;2100859;28;1569;-90
2021/09/14 06:33:10;;;;;;;;;;;;;;;;;;2098614;28;630;-92
2021/09/14 06:34:11;;;;;;;;;;;;;;;;;;2092185;28;1320;-90
2021/09/14 06:35:13;;;;;;;;;;;;;;;;;;2100965;28;2003;-90
2021/09/14 06:36:20;;;;;;;;;;;;;;;;;;2100335;28;1164;-91
2021/09/14 06:37:21;;;;;;;;;;;;;;;;;;2084452;28;2049;-90
2021/09/14 06:38:22;;;;;;;;;;;;;;;;;;2092499;28;1195;-91
2021/09/14 06:39:25;;;;;;;;;;;;;;;;;;2100011;28;1555;-90
2021/09/14 06:40:27;;;;;;;;;;;;;;;;;;2093074;28;1941;-91
2021/09/14 06:41:30;;;;;;;;;;;;;;;;;;2092393;28;1500;-90
2021/09/14 06:45:10;;;;;;;;;;;;;;;;;;2092102;28;1914;-89
2021/09/14 06:46:32;;;;;;;;;;;;;;;;;;2092087;28;1422;-90
2021/09/14 06:47:40;;;;;;;;;;;;;;;;;;2097296;28;1959;-92
2021/09/14 06:48:42;;;;;;;;;;;;;;;;;;2092488;28;1193;-87
2021/09/14 06:49:42;;;;;;;;;;;;;;;;;;2081946;28;1516;-90
2021/09/14 06:50:44;;;;;;;;;;;;;;;;;;2084185;28;2197;-89
2021/09/14 06:51:46;;;;;;;;;;;;;;;;;;2083740;28;1211;-90
2021/09/14 06:52:48;;;;;;;;;;;;;;;;;;2083019;28;1666;-86
2021/09/14 06:53:52;;;;;;;;;;;;;;;;;;2091683;28;1218;-86
2021/09/14 06:54:53;;;;;;;;;;;;;;;;;;2089145;28;1671;-89
2021/09/14 06:55:56;;;;;;;;;;;;;;;;;;2083311;28;1314;-89
2021/09/14 06:57:03;;;;;;;;;;;;;;;;;;2092482;28;1473;-89
2021/09/14 06:58:05;;;;;;;;;;;;;;;;;;2093054;28;1418;-89
2021/09/14 06:59:14;;;;;;;;;;;;;;;;;;2091187;28;1808;-90
2021/09/14 07:00:16;;;;;;;;;;;;;;;;;;2093127;28;1685;-89
2021/09/14 07:01:18;;;;;;;;;;;;;;;;;;2094637;28;1693;-89
2021/09/14 07:02:20;;;;;;;;;;;;;;;;;;2078017;28;1795;-89
2021/09/14 07:03:20;;;;;;;;;;;;;;;;;;2084123;28;1334;-89
2021/09/14 07:04:22;;;;;;;;;;;;;;;;;;2083631;28;1922;-90
2021/09/14 07:05:26;;;;;;;;;;;;;;;;;;2082830;28;1923;-86
2021/09/14 07:06:28;;;;;;;;;;;;;;;;;;2084220;28;1474;-86
2021/09/14 07:07:33;;;;;;;;;;;;;;;;;;2103259;28;1858;-84
2021/09/14 07:08:36;;;;;;;;;;;;;;;;;;2097689;28;1830;-86
2021/09/14 07:09:36;;;;;;;;;;;;;;;;;;2094887;28;1677;-86
2021/09/14 07:10:41;;;;;;;;;;;;;;;;;;2092124;28;2037;-86
2021/09/14 07:11:43;;;;;;;;;;;;;;;;;;2084353;28;1182;-86
2021/09/14 07:12:45;;;;;;;;;;;;;;;;;;2089434;28;2115;-87
2021/09/14 07:13:46;;;;;;;;;;;;;;;;;;2083671;28;1698;-87
2021/09/14 07:14:50;;;;;;;;;;;;;;;;;;2100421;28;1382;-87
2021/09/14 07:15:51;;;;;;;;;;;;;;;;;;2095700;28;1648;-85
2021/09/14 07:16:54;;;;;;;;;;;;;;;;;;2092238;28;1255;-86
2021/09/14 07:17:56;;;;;;;;;;;;;;;;;;2095490;28;1892;-87
2021/09/14 07:18:56;;;;;;;;;;;;;;;;;;2083836;28;1239;-86
2021/09/14 07:20:00;;;;;;;;;;;;;;;;;;2082330;28;1655;-92
2021/09/14 07:21:02;;;;;;;;;;;;;;;;;;2082926;28;1655;-90
2021/09/14 07:22:02;;;;;;;;;;;;;;;;;;2083425;28;2078;-91
2021/09/14 07:23:07;;;;;;;;;;;;;;;;;;2100844;28;1279;-91
2021/09/14 07:24:12;;;;;;;;;;;;;;;;;;2091225;28;1976;-90
2021/09/14 07:25:12;;;;;;;;;;;;;;;;;;2092624;28;2037;-87
2021/09/14 07:26:14;;;;;;;;;;;;;;;;;;2078348;28;1670;-87
2021/09/14 07:27:15;;;;;;;;;;;;;;;;;;2083664;28;1715;-86
2021/09/14 07:28:18;;;;;;;;;;;;;;;;;;2102461;28;1711;-87
2021/09/14 07:29:19;;;;;;;;;;;;;;;;;;2099302;28;1696;-87
2021/09/14 07:30:21;;;;;;;;;;;;;;;;;;2082622;28;1634;-86
2021/09/14 07:31:22;;;;;;;;;;;;;;;;;;2100556;28;1229;-86
2021/09/14 07:32:24;;;;;;;;;;;;;;;;;;2097884;28;1938;-86
2021/09/14 07:33:25;;;;;;;;;;;;;;;;;;2083526;28;1252;-87
2021/09/14 07:34:29;;;;;;;;;;;;;;;;;;2092024;28;1238;-86
2021/09/14 07:35:33;;;;;;;;;;;;;;;;;;2080721;28;1971;-86
2021/09/14 07:36:34;;;;;;;;;;;;;;;;;;2080523;28;1244;-85
2021/09/14 07:37:36;;;;;;;;;;;;;;;;;;2085235;28;1825;-86
2021/09/14 07:38:40;;;;;;;;;;;;;;;;;;2099237;28;1791;-87
2021/09/14 07:39:44;;;;;;;;;;;;;;;;;;2091154;28;1235;-87
2021/09/14 07:40:46;;;;;;;;;;;;;;;;;;2082856;28;2039;-87
2021/09/14 07:41:47;;;;;;;;;;;;;;;;;;2100056;28;1203;-88
2021/09/14 07:42:49;;;;;;;;;;;;;;;;;;2094933;28;1884;-87
2021/09/14 07:43:50;;;;;;;;;;;;;;;;;;2090189;28;1180;-87
2021/09/14 07:45:00;;;;;;;;;;;;;;;;;;2092142;28;2029;-88
2021/09/14 07:46:02;;;;;;;;;;;;;;;;;;2099055;28;1222;-88
2021/09/14 07:47:05;;;;;;;;;;;;;;;;;;2083734;28;1814;-87
2021/09/14 07:48:07;;;;;;;;;;;;;;;;;;2091840;28;1225;-87
2021/09/14 07:49:17;;;;;;;;;;;;;;;;;;2108516;28;1346;-87
2021/09/14 07:50:23;;;;;;;;;;;;;;;;;;2102100;28;2090;-87
2021/09/14 07:51:27;;;;;;;;;;;;;;;;;;2081132;28;1405;-86
2021/09/14 07:52:27;;;;;;;;;;;;;;;;;;2078837;28;1902;-89
2021/09/14 07:53:32;;;;;;;;;;;;;;;;;;2091983;28;1674;-89
2021/09/14 07:54:34;;;;;;;;;;;;;;;;;;2092082;28;1310;-88
2021/09/14 07:55:37;;;;;;;;;;;;;;;;;;2094255;28;1849;-89
2021/09/14 07:56:38;;;;;;;;;;;;;;;;;;2091417;28;1277;-88
2021/09/14 07:57:40;;;;;;;;;;;;;;;;;;2100537;28;1974;-88
2021/09/14 07:58:41;;;;;;;;;;;;;;;;;;2099835;28;1374;-88
2021/09/14 07:59:56;;;;;;;;;;;;;;;;;;2100142;28;1476;-88
2021/09/14 08:00:58;;;;;;;;;;;;;;;;;;2106251;28;1752;-88
2021/09/14 08:01:58;;;;;;;;;;;;;;;;;;2108248;28;1259;-88
2021/09/14 08:03:01;;;;;;;;;;;;;;;;;;2092673;28;1957;-88
2021/09/14 08:04:11;;;;;;;;;;;;;;;;;;2091751;28;1317;-88
2021/09/14 08:05:11;;;;;;;;;;;;;;;;;;2100933;28;1667;-88
2021/09/14 08:06:13;;;;;;;;;;;;;;;;;;2108488;28;1334;-88
2021/09/14 08:07:21;;;;;;;;;;;;;;;;;;2106789;28;1521;-90
2021/09/14 08:08:25;;;;;;;;;;;;;;;;;;2108215;28;1668;-89
2021/09/14 08:09:31;;;;;;;;;;;;;;;;;;2099611;28;1204;-90
2021/09/14 08:10:36;;;;;;;;;;;;;;;;;;2084209;28;1880;-89
2021/09/14 08:11:37;;;;;;;;;;;;;;;;;;2092101;28;902;-87
2021/09/14 08:12:44;;;;;;;;;;;;;;;;;;2091612;28;1763;-88
2021/09/14 08:13:49;;;;;;;;;;;;;;;;;;2100815;28;1192;-88
2021/09/14 08:14:52;;;;;;;;;;;;;;;;;;2099162;28;1973;-89
2021/09/14 08:15:58;;;;;;;;;;;;;;;;;;2083828;28;1463;-88
2021/09/14 08:17:03;;;;;;;;;;;;;;;;;;2103600;28;1711;-88
2021/09/14 08:18:07;;;;;;;;;;;;;;;;;;2099094;28;831;-89
2021/09/14 08:19:09;;;;;;;;;;;;;;;;;;2099035;28;1330;-90
2021/09/14 08:20:12;;;;;;;;;;;;;;;;;;2093165;28;2020;-89
2021/09/14 08:21:14;;;;;;;;;;;;;;;;;;2083348;28;1265;-89
2021/09/14 08:22:17;;;;;;;;;;;;;;;;;;2083458;28;1306;-88
2021/09/14 08:23:20;;;;;;;;;;;;;;;;;;2083748;28;1251;-88
2021/09/14 08:24:24;;;;;;;;;;;;;;;;;;2083602;28;1914;-88
2021/09/14 08:25:30;;;;;;;;;;;;;;;;;;2099042;28;1937;-88
2021/09/14 08:26:45;;;;;;;;;;;;;;;;;;2098939;28;1318;-88
2021/09/14 08:27:49;;;;;;;;;;;;;;;;;;2091538;28;1528;-88
2021/09/14 08:28:55;;;;;;;;;;;;;;;;;;2083133;28;1316;-88